createdAt,value
2023-04-26T00:00:23.452Z,99.90
2023-04-26T00:02:53.317Z,99.90
2023-04-26T00:05:21.778Z,99.90
2023-04-26T00:07:50.453Z,99.90
2023-04-26T00:10:18.613Z,99.90
2023-04-26T00:12:46.624Z,99.90
2023-04-26T00:15:14.757Z,99.90
2023-04-26T00:17:42.900Z,99.90
2023-04-26T00:20:13.556Z,99.90
2023-04-26T00:22:41.761Z,99.90
2023-04-26T00:25:11.178Z,99.90
2023-04-26T00:27:39.182Z,99.90
2023-04-26T00:30:09.108Z,99.90
2023-04-26T00:32:37.177Z,99.90
2023-04-26T00:35:06.402Z,99.90
2023-04-26T00:37:36.093Z,99.90
2023-04-26T00:40:04.222Z,99.90
2023-04-26T00:42:32.213Z,99.90
2023-04-26T00:45:00.186Z,99.90
2023-04-26T00:47:30.778Z,99.90
2023-04-26T00:49:59.152Z,99.90
2023-04-26T00:52:28.377Z,99.90
2023-04-26T00:54:58.361Z,99.90
2023-04-26T00:57:26.767Z,99.90
2023-04-26T00:59:54.788Z,99.90
2023-04-26T01:02:27.589Z,99.90
2023-04-26T01:12:31.601Z,99.90
2023-04-26T01:18:53.030Z,99.90
2023-04-26T01:21:22.734Z,99.90
2023-04-26T01:23:52.923Z,99.90
2023-04-26T01:26:21.066Z,99.90
2023-04-26T01:28:49.762Z,99.90
2023-04-26T01:31:17.871Z,99.90
2023-04-26T01:33:45.922Z,99.90
2023-04-26T01:36:15.076Z,99.90
2023-04-26T01:38:43.142Z,99.90
2023-04-26T01:41:12.460Z,99.90
2023-04-26T01:43:40.448Z,99.90
2023-04-26T01:46:08.440Z,99.90
2023-04-26T01:48:36.664Z,99.90
2023-04-26T01:51:04.730Z,99.90
2023-04-26T01:53:32.826Z,99.90
2023-04-26T01:56:02.571Z,99.90
2023-04-26T01:58:32.012Z,99.90
2023-04-26T02:01:07.090Z,99.90
2023-04-26T02:03:35.520Z,99.90
2023-04-26T02:06:04.115Z,99.90
2023-04-26T02:08:32.129Z,99.90
2023-04-26T02:11:00.147Z,99.90
2023-04-26T02:13:28.159Z,99.90
2023-04-26T02:15:57.870Z,99.90
2023-04-26T02:18:25.958Z,99.90
2023-04-26T02:20:53.951Z,99.90
2023-04-26T02:23:22.173Z,99.90
2023-04-26T02:25:50.484Z,99.90
2023-04-26T02:28:18.675Z,99.90
2023-04-26T02:30:46.668Z,99.90
2023-04-26T02:33:15.995Z,99.90
2023-04-26T02:35:43.993Z,99.90
2023-04-26T02:38:11.992Z,99.90
2023-04-26T02:40:39.998Z,99.90
2023-04-26T02:43:10.146Z,99.90
2023-04-26T02:45:42.521Z,99.90
2023-04-26T02:48:10.602Z,99.90
2023-04-26T02:50:39.954Z,99.90
2023-04-26T02:53:08.152Z,99.90
2023-04-26T02:55:36.155Z,99.90
2023-04-26T02:58:04.175Z,99.90
2023-04-26T03:00:34.106Z,99.90
2023-04-26T03:03:02.762Z,99.90
2023-04-26T03:05:31.053Z,99.90
2023-04-26T03:08:00.412Z,99.90
2023-04-26T03:10:28.419Z,99.90
2023-04-26T03:12:56.559Z,99.90
2023-04-26T03:15:24.615Z,99.90
2023-04-26T03:17:52.762Z,99.90
2023-04-26T03:20:20.920Z,99.90
2023-04-26T03:22:48.895Z,99.90
2023-04-26T03:25:18.473Z,99.90
2023-04-26T03:27:46.466Z,99.90
2023-04-26T03:30:15.329Z,99.90
2023-04-26T03:32:43.359Z,99.90
2023-04-26T03:35:11.444Z,99.90
2023-04-26T03:37:40.178Z,99.90
2023-04-26T03:40:09.874Z,99.90
2023-04-26T03:42:39.352Z,99.90
2023-04-26T03:45:08.649Z,99.90
2023-04-26T03:47:36.691Z,99.90
2023-04-26T03:50:05.087Z,99.90
2023-04-26T03:52:33.111Z,99.90
2023-04-26T03:55:01.195Z,99.90
2023-04-26T03:57:29.243Z,99.90
2023-04-26T03:59:58.729Z,99.90
2023-04-26T04:02:26.848Z,99.90
2023-04-26T04:04:55.089Z,99.90
2023-04-26T04:07:23.268Z,99.90
2023-04-26T04:09:51.231Z,99.90
2023-04-26T04:12:19.232Z,99.90
2023-04-26T04:14:47.396Z,99.90
2023-04-26T04:17:16.761Z,99.90
2023-04-26T04:19:45.068Z,99.90
2023-04-26T04:22:13.209Z,99.90
2023-04-26T04:24:42.441Z,99.90
2023-04-26T04:27:10.485Z,99.90
2023-04-26T04:29:38.632Z,99.90
2023-04-26T04:32:07.134Z,99.90
2023-04-26T04:34:37.223Z,99.90
2023-04-26T04:37:05.316Z,99.90
2023-04-26T04:39:33.474Z,99.90
2023-04-26T04:42:01.456Z,99.90
2023-04-26T04:44:29.458Z,99.90
2023-04-26T04:46:58.404Z,99.90
2023-04-26T04:49:26.505Z,99.90
2023-04-26T04:51:56.178Z,99.90
2023-04-26T04:54:24.201Z,99.90
2023-04-26T04:56:52.326Z,99.90
2023-04-26T04:59:20.321Z,99.90
2023-04-26T05:01:48.493Z,99.90
2023-04-26T05:04:16.962Z,99.90
2023-04-26T05:06:45.280Z,99.90
2023-04-26T05:09:14.691Z,99.90
2023-04-26T05:11:42.725Z,99.90
2023-04-26T05:14:10.747Z,99.90
2023-04-26T05:16:38.892Z,99.90
2023-04-26T05:19:09.324Z,99.90
2023-04-26T05:21:37.785Z,99.90
2023-04-26T05:24:06.136Z,99.90
2023-04-26T05:26:36.703Z,99.90
2023-04-26T05:29:04.749Z,99.90
2023-04-26T05:31:32.788Z,99.90
2023-04-26T05:34:01.041Z,99.90
2023-04-26T05:36:30.058Z,99.90
2023-04-26T05:38:58.158Z,99.90
2023-04-26T05:41:26.198Z,99.90
2023-04-26T05:43:55.792Z,99.90
2023-04-26T05:46:23.918Z,99.90
2023-04-26T05:48:51.984Z,99.90
2023-04-26T05:51:19.990Z,99.90
2023-04-26T05:53:48.049Z,99.90
2023-04-26T05:56:16.224Z,99.90
2023-04-26T05:58:44.565Z,99.90
2023-04-26T06:01:13.936Z,99.90
2023-04-26T06:03:42.227Z,99.90
2023-04-26T06:06:10.964Z,99.90
2023-04-26T06:08:39.146Z,99.90
2023-04-26T06:11:07.691Z,99.90
2023-04-26T06:13:35.681Z,99.90
2023-04-26T06:16:03.948Z,99.90
2023-04-26T06:18:33.401Z,99.90
2023-04-26T06:21:01.385Z,99.90
2023-04-26T06:23:30.981Z,99.90
2023-04-26T06:25:58.977Z,99.90
2023-04-26T06:28:27.131Z,99.90
2023-04-26T06:30:55.178Z,99.90
2023-04-26T06:33:23.222Z,99.90
2023-04-26T06:35:52.653Z,99.90
2023-04-26T06:38:21.012Z,99.90
2023-04-26T06:40:49.168Z,99.90
2023-04-26T06:43:17.206Z,99.90
2023-04-26T06:45:45.201Z,99.90
2023-04-26T06:48:13.433Z,99.90
2023-04-26T06:50:41.615Z,99.90
2023-04-26T06:53:11.078Z,99.90
2023-04-26T06:55:39.103Z,99.90
2023-04-26T06:58:07.188Z,99.90
2023-04-26T07:00:35.325Z,99.90
2023-04-26T07:03:03.467Z,99.90
2023-04-26T07:05:31.733Z,99.90
2023-04-26T07:07:59.780Z,99.90
2023-04-26T07:10:29.302Z,99.90
2023-04-26T07:12:57.666Z,99.90
2023-04-26T07:15:25.754Z,99.90
2023-04-26T07:17:53.809Z,99.90
2023-04-26T07:20:22.801Z,99.90
2023-04-26T07:22:51.026Z,99.90
2023-04-26T07:25:19.249Z,99.90
2023-04-26T07:27:48.679Z,99.90
2023-04-26T07:30:16.795Z,99.90
2023-04-26T07:32:44.870Z,99.90
2023-04-26T07:35:16.235Z,99.90
2023-04-26T07:37:45.045Z,99.90
2023-04-26T07:40:14.933Z,99.90
2023-04-26T07:42:42.927Z,99.90
2023-04-26T07:45:13.644Z,99.90
2023-04-26T07:47:41.675Z,99.90
2023-04-26T07:50:11.535Z,99.90
2023-04-26T07:52:39.861Z,99.90
2023-04-26T07:55:09.349Z,99.90
2023-04-26T07:57:37.739Z,99.90
2023-04-26T08:00:09.827Z,99.90
2023-04-26T08:02:45.030Z,99.90
2023-04-26T08:05:14.022Z,99.90
2023-04-26T08:07:42.342Z,99.90
2023-04-26T08:10:11.441Z,99.90
2023-04-26T08:12:39.884Z,99.90
2023-04-26T08:15:09.232Z,99.90
2023-04-26T08:17:38.771Z,99.90
2023-04-26T08:20:09.572Z,99.90
2023-04-26T08:22:37.816Z,99.90
2023-04-26T08:25:06.688Z,99.90
2023-04-26T08:27:35.945Z,99.90
2023-04-26T08:30:04.042Z,99.90
2023-04-26T08:32:34.046Z,99.90
2023-04-26T08:35:03.545Z,99.90
2023-04-26T08:37:31.736Z,99.90
2023-04-26T08:39:59.917Z,99.90
2023-04-26T08:42:29.724Z,99.90
2023-04-26T08:45:01.657Z,99.90
2023-04-26T08:47:37.723Z,99.90
2023-04-26T08:50:09.549Z,99.90
2023-04-26T08:52:41.013Z,99.90
2023-04-26T08:55:10.720Z,99.90
2023-04-26T09:00:07.000Z,99.90
2023-04-26T09:02:36.562Z,99.90
2023-04-26T09:05:08.013Z,99.90
2023-04-26T09:07:42.200Z,99.90
2023-04-26T09:10:11.801Z,99.90
2023-04-26T09:12:40.696Z,99.90
2023-04-26T09:15:10.261Z,99.90
2023-04-26T09:17:40.664Z,99.90
2023-04-26T09:20:26.398Z,99.90
2023-04-26T09:22:56.244Z,99.90
2023-04-26T09:25:30.065Z,99.90
2023-04-26T09:27:59.027Z,99.90
2023-04-26T09:30:27.886Z,99.90
2023-04-26T09:32:57.386Z,99.90
2023-04-26T09:35:32.140Z,99.90
2023-04-26T09:38:07.856Z,99.90
2023-04-26T09:40:41.562Z,99.90
2023-04-26T09:43:11.675Z,99.90
2023-04-26T09:45:49.503Z,99.90
2023-04-26T09:48:22.041Z,99.90
2023-04-26T09:50:53.335Z,99.90
2023-04-26T09:53:32.054Z,99.90
2023-04-26T09:56:08.526Z,99.90
2023-04-26T09:58:38.506Z,99.90
2023-04-26T10:01:08.087Z,99.90
2023-04-26T10:03:37.175Z,99.90
2023-04-26T10:06:07.504Z,99.90
2023-04-26T10:08:36.405Z,99.90
2023-04-26T10:11:07.376Z,99.90
2023-04-26T10:13:36.355Z,99.90
2023-04-26T10:16:06.709Z,99.90
2023-04-26T10:18:35.692Z,99.90
2023-04-26T10:21:08.419Z,99.90
2023-04-26T10:23:37.174Z,99.90
2023-04-26T10:26:05.547Z,99.90
2023-04-26T10:28:59.155Z,99.90
2023-04-26T10:32:02.972Z,99.90
2023-04-26T10:34:32.557Z,99.90
2023-04-26T10:37:10.960Z,99.90
2023-04-26T10:39:39.468Z,99.90
2023-04-26T10:42:27.577Z,99.90
2023-04-26T10:44:56.457Z,99.90
2023-04-26T10:47:28.172Z,99.90
2023-04-26T10:50:07.220Z,99.90
2023-04-26T10:52:37.074Z,99.70
2023-04-26T10:55:06.498Z,99.90
2023-04-26T10:57:54.278Z,99.90
2023-04-26T11:00:32.292Z,99.90
2023-04-26T11:03:05.052Z,99.90
2023-04-26T11:05:56.012Z,99.90
2023-04-26T11:08:30.248Z,99.90
2023-04-26T11:11:10.051Z,99.90
2023-04-26T11:13:39.841Z,99.90
2023-04-26T11:16:09.418Z,99.90
2023-04-26T11:18:39.761Z,99.10
2023-04-26T11:21:08.586Z,99.90
2023-04-26T11:23:38.113Z,99.90
2023-04-26T11:26:08.310Z,99.90
2023-04-26T11:28:37.535Z,99.90
2023-04-26T11:31:07.174Z,99.90
2023-04-26T11:33:43.470Z,99.90
2023-04-26T11:36:11.496Z,99.90
2023-04-26T11:38:40.998Z,99.90
2023-04-26T11:41:10.483Z,99.90
2023-04-26T11:43:43.236Z,99.90
2023-04-26T11:46:11.301Z,99.90
2023-04-26T11:48:40.851Z,99.90
2023-04-26T11:51:10.537Z,99.90
2023-04-26T11:53:44.536Z,99.90
2023-04-26T11:56:17.312Z,99.90
2023-04-26T11:58:46.807Z,99.90
2023-04-26T12:01:22.137Z,99.90
2023-04-26T12:03:52.225Z,99.90
2023-04-26T12:06:21.183Z,99.90
2023-04-26T12:08:54.015Z,99.90
2023-04-26T12:11:22.200Z,99.90
2023-04-26T12:13:50.255Z,99.90
2023-04-26T12:16:26.449Z,99.90
2023-04-26T12:18:56.767Z,99.90
2023-04-26T12:21:28.144Z,99.90
2023-04-26T12:23:59.288Z,99.90
2023-04-26T12:26:43.556Z,99.90
2023-04-26T12:29:11.589Z,99.90
2023-04-26T12:31:39.809Z,99.90
2023-04-26T12:34:08.170Z,99.90
2023-04-26T12:36:36.274Z,99.90
2023-04-26T12:39:06.807Z,99.90
2023-04-26T12:41:35.226Z,99.90
2023-04-26T12:44:03.253Z,99.90
2023-04-26T12:46:31.406Z,99.90
2023-04-26T12:48:59.526Z,99.90
2023-04-26T12:51:27.595Z,99.90
2023-04-26T12:53:55.612Z,99.90
2023-04-26T12:56:25.406Z,99.90
2023-04-26T12:58:53.657Z,99.90
2023-04-26T13:01:21.771Z,99.90
2023-04-26T13:03:50.076Z,99.90
2023-04-26T13:06:18.377Z,98.10
2023-04-26T13:08:46.489Z,96.60
2023-04-26T13:11:14.764Z,97.60
2023-04-26T13:13:44.834Z,96.20
2023-04-26T13:16:13.544Z,96.90
2023-04-26T13:18:41.728Z,98.10
2023-04-26T13:21:09.754Z,96.40
2023-04-26T13:23:37.775Z,97.20
2023-04-26T13:26:05.868Z,97.10
2023-04-26T13:28:33.892Z,97.20
2023-04-26T13:31:03.571Z,97.40
2023-04-26T13:33:37.384Z,98.00
2023-04-26T13:36:05.760Z,96.30
2023-04-26T13:38:39.962Z,97.60
2023-04-26T13:41:07.950Z,97.70
2023-04-26T13:43:41.125Z,98.40
2023-04-26T13:46:10.521Z,99.40
2023-04-26T13:48:38.545Z,98.20
2023-04-26T13:51:07.441Z,97.50
2023-04-26T13:53:35.533Z,96.90
2023-04-26T13:56:03.885Z,97.60
2023-04-26T13:58:31.977Z,98.10
2023-04-26T14:00:59.995Z,98.00
2023-04-26T14:03:29.525Z,97.30
2023-04-26T14:05:57.651Z,97.30
2023-04-26T14:08:25.877Z,97.20
2023-04-26T14:10:54.589Z,96.90
2023-04-26T14:13:22.608Z,97.40
2023-04-26T14:15:50.837Z,97.40
2023-04-26T14:18:19.314Z,98.10
2023-04-26T14:20:48.723Z,98.20
2023-04-26T14:23:16.961Z,98.80
2023-04-26T14:25:52.109Z,98.80
2023-04-26T14:28:20.216Z,98.80
2023-04-26T14:30:48.284Z,98.80
2023-04-26T14:33:16.677Z,99.60
2023-04-26T14:35:44.704Z,99.90
2023-04-26T14:38:14.544Z,99.60
2023-04-26T14:40:42.637Z,98.60
2023-04-26T14:43:10.860Z,98.50
2023-04-26T14:45:44.465Z,99.20
2023-04-26T14:48:12.982Z,99.70
2023-04-26T14:50:41.430Z,99.70
2023-04-26T14:53:09.860Z,99.70
2023-04-26T14:55:39.310Z,99.40
2023-04-26T14:58:07.438Z,99.50
2023-04-26T15:00:35.464Z,98.70
2023-04-26T15:03:03.616Z,98.00
2023-04-26T15:05:32.722Z,97.90
2023-04-26T15:08:01.216Z,98.10
2023-04-26T15:10:29.208Z,96.80
2023-04-26T15:12:58.618Z,96.10
2023-04-26T15:15:26.618Z,96.50
2023-04-26T15:17:54.625Z,94.80
2023-04-26T15:20:22.773Z,95.60
2023-04-26T15:22:50.783Z,95.90
2023-04-26T15:25:19.185Z,96.80
2023-04-26T15:27:47.197Z,96.60
2023-04-26T15:30:16.775Z,98.00
2023-04-26T15:32:48.995Z,97.10
2023-04-26T15:35:17.229Z,97.40
2023-04-26T15:37:45.488Z,97.30
2023-04-26T15:40:14.016Z,97.90
2023-04-26T15:42:41.996Z,98.20
2023-04-26T15:45:10.944Z,98.10
2023-04-26T15:47:40.309Z,98.70
2023-04-26T15:50:09.160Z,99.20
2023-04-26T15:52:39.452Z,99.10
2023-04-26T15:55:09.443Z,98.90
2023-04-26T15:57:38.004Z,99.60
2023-04-26T16:00:08.792Z,99.20
2023-04-26T16:02:36.959Z,99.10
2023-04-26T16:05:08.250Z,98.20
2023-04-26T16:07:38.711Z,97.80
2023-04-26T16:10:08.322Z,97.80
2023-04-26T16:12:39.311Z,98.30
2023-04-26T16:15:09.393Z,97.80
2023-04-26T16:17:38.484Z,97.40
2023-04-26T16:20:10.124Z,98.00
2023-04-26T16:22:38.200Z,97.70
2023-04-26T16:25:08.932Z,97.40
2023-04-26T16:27:37.015Z,96.70
2023-04-26T16:30:05.733Z,97.70
2023-04-26T16:32:34.203Z,97.50
2023-04-26T16:35:02.841Z,97.90
2023-04-26T16:37:32.229Z,98.40
2023-04-26T16:40:00.334Z,97.40
2023-04-26T16:42:30.721Z,96.70
2023-04-26T16:44:59.040Z,96.80
2023-04-26T16:47:27.124Z,97.40
2023-04-26T16:49:55.179Z,98.00
2023-04-26T16:52:23.199Z,97.20
2023-04-26T16:54:52.582Z,97.50
2023-04-26T16:57:20.611Z,97.60
2023-04-26T16:59:48.804Z,97.50
2023-04-26T17:02:16.886Z,98.80
2023-04-26T17:04:45.152Z,98.60
2023-04-26T17:07:13.417Z,97.90
2023-04-26T17:09:41.514Z,98.40
2023-04-26T17:12:11.045Z,99.30
2023-04-26T17:14:39.134Z,98.90
2023-04-26T17:17:07.344Z,99.60
2023-04-26T17:19:35.404Z,99.60
2023-04-26T17:22:03.635Z,99.90
2023-04-26T17:24:35.904Z,99.90
2023-04-26T17:27:04.482Z,99.90
2023-04-26T17:29:33.888Z,99.90
2023-04-26T17:32:01.960Z,99.90
2023-04-26T17:34:30.055Z,99.90
2023-04-26T17:36:58.039Z,99.90
2023-04-26T17:39:26.204Z,99.90
2023-04-26T17:41:54.314Z,99.90
2023-04-26T17:44:22.372Z,99.90
2023-04-26T17:46:51.743Z,99.90
2023-04-26T17:49:21.384Z,99.90
2023-04-26T17:51:49.386Z,99.90
2023-04-26T17:54:17.381Z,99.90
2023-04-26T17:56:46.076Z,99.90
2023-04-26T17:59:14.204Z,99.90
2023-04-26T18:01:42.297Z,99.90
2023-04-26T18:04:11.799Z,99.90
2023-04-26T18:06:40.416Z,99.90
2023-04-26T18:09:08.614Z,99.90
2023-04-26T18:11:36.619Z,99.90
2023-04-26T18:14:04.782Z,99.90
2023-04-26T18:16:32.810Z,99.90
2023-04-26T18:19:00.920Z,99.90
2023-04-26T18:21:30.323Z,99.90
2023-04-26T18:24:00.426Z,99.90
2023-04-26T18:26:28.468Z,99.90
2023-04-26T18:28:57.020Z,99.90
2023-04-26T18:31:25.042Z,99.90
2023-04-26T18:33:53.085Z,99.90
2023-04-26T18:36:21.102Z,99.90
2023-04-26T18:38:50.495Z,99.90
2023-04-26T18:41:18.943Z,99.90
2023-04-26T18:43:46.936Z,99.90
2023-04-26T18:46:14.954Z,99.90
2023-04-26T18:48:42.993Z,99.90
2023-04-26T18:51:11.043Z,99.90
2023-04-26T18:53:39.067Z,99.90
2023-04-26T18:56:08.574Z,99.90
2023-04-26T18:58:36.843Z,99.90
2023-04-26T19:01:05.002Z,99.90
2023-04-26T19:03:33.092Z,99.90
2023-04-26T19:06:01.182Z,99.90
2023-04-26T19:08:29.195Z,99.90
2023-04-26T19:10:57.251Z,99.90
2023-04-26T19:13:26.659Z,99.90
2023-04-26T19:15:54.801Z,99.90
2023-04-26T19:18:22.896Z,99.90
2023-04-26T19:20:51.000Z,99.90
2023-04-26T19:23:19.251Z,99.90
2023-04-26T19:25:47.684Z,99.90
2023-04-26T19:28:16.650Z,99.90
2023-04-26T19:30:46.041Z,99.90
2023-04-26T19:33:14.133Z,99.90
2023-04-26T19:35:42.167Z,99.90
2023-04-26T19:38:10.198Z,99.90
2023-04-26T19:40:39.002Z,99.90
2023-04-26T19:43:07.135Z,99.90
2023-04-26T19:45:35.167Z,99.90
2023-04-26T19:48:04.703Z,99.90
2023-04-26T19:50:32.971Z,99.90
2023-04-26T19:53:01.014Z,99.90
2023-04-26T19:55:43.075Z,99.90
2023-04-26T19:58:11.540Z,99.90
2023-04-26T20:00:40.411Z,99.90
2023-04-26T20:03:10.018Z,99.90
2023-04-26T20:05:38.115Z,99.90
2023-04-26T20:08:06.330Z,99.90
2023-04-26T20:10:34.893Z,99.90
2023-04-26T20:13:03.117Z,99.90
2023-04-26T20:15:33.038Z,99.90
2023-04-26T20:18:02.329Z,99.90
2023-04-26T20:20:31.826Z,99.90
2023-04-26T20:22:59.884Z,99.90
2023-04-26T20:25:27.945Z,99.90
2023-04-26T20:27:56.875Z,99.90
2023-04-26T20:30:25.113Z,99.90
2023-04-26T20:32:53.167Z,99.90
2023-04-26T20:35:21.682Z,99.90
2023-04-26T20:37:51.288Z,99.90
2023-04-26T20:40:19.411Z,99.90
2023-04-26T20:42:47.447Z,99.90
2023-04-26T20:45:16.560Z,99.90
2023-04-26T20:47:44.680Z,99.90
2023-04-26T20:50:13.095Z,99.90
2023-04-26T20:52:41.293Z,99.90
2023-04-26T20:55:11.162Z,99.90
2023-04-26T20:57:39.414Z,99.90
2023-04-26T21:00:10.399Z,99.90
2023-04-26T21:02:39.161Z,99.90
2023-04-26T21:05:07.732Z,99.90
2023-04-26T21:07:35.760Z,99.90
2023-04-26T21:10:04.015Z,99.90
2023-04-26T21:12:34.316Z,99.90
2023-04-26T21:15:02.546Z,99.90
2023-04-26T21:17:30.631Z,99.90
2023-04-26T21:19:58.662Z,99.90
2023-04-26T21:22:26.680Z,99.90
2023-04-26T21:24:54.642Z,99.90
2023-04-26T21:27:23.830Z,99.90
2023-04-26T21:29:53.568Z,99.90
2023-04-26T21:32:21.576Z,99.90
2023-04-26T21:34:49.586Z,99.90
2023-04-26T21:37:17.682Z,99.90
2023-04-26T21:39:45.692Z,99.90
2023-04-26T21:42:13.841Z,99.90
2023-04-26T21:44:41.831Z,99.90
2023-04-26T21:47:11.717Z,99.90
2023-04-26T21:49:40.273Z,99.90
2023-04-26T21:52:08.285Z,99.90
2023-04-26T21:54:36.789Z,99.90
2023-04-26T21:57:06.658Z,99.90
2023-04-26T21:59:35.229Z,99.90
2023-04-26T22:02:03.641Z,99.90
2023-04-26T22:04:33.072Z,99.90
2023-04-26T22:07:01.200Z,99.90
2023-04-26T22:09:29.217Z,99.90
2023-04-26T22:11:57.256Z,99.90
2023-04-26T22:14:25.560Z,99.90
2023-04-26T22:16:53.984Z,99.90
2023-04-26T22:19:22.040Z,99.90
2023-04-26T22:21:51.485Z,99.90
2023-04-26T22:24:19.473Z,99.90
2023-04-26T22:26:48.142Z,99.90
2023-04-26T22:29:16.314Z,99.90
2023-04-26T22:31:44.375Z,99.90
2023-04-26T22:34:12.495Z,99.90
2023-04-26T22:36:40.749Z,99.90
2023-04-26T22:39:10.388Z,99.90
2023-04-26T22:41:38.670Z,99.90
2023-04-26T22:44:06.804Z,99.90
2023-04-26T22:46:34.870Z,99.90
2023-04-26T22:49:02.919Z,99.90
2023-04-26T22:51:32.343Z,99.90
2023-04-26T22:54:01.341Z,99.90
2023-04-26T22:56:30.764Z,99.90
2023-04-26T22:58:58.786Z,99.90
2023-04-26T23:01:26.892Z,99.90
2023-04-26T23:03:55.036Z,99.90
2023-04-26T23:06:23.470Z,99.90
2023-04-26T23:08:51.500Z,99.90
2023-04-26T23:11:19.702Z,99.90
2023-04-26T23:13:52.205Z,99.90
2023-04-26T23:16:21.331Z,99.90
2023-04-26T23:18:49.399Z,99.90
2023-04-26T23:21:17.448Z,99.90
2023-04-26T23:23:45.573Z,99.90
2023-04-26T23:26:14.378Z,99.90
2023-04-26T23:28:42.415Z,99.90
2023-04-26T23:31:11.880Z,99.90
2023-04-26T23:33:39.914Z,99.90
2023-04-26T23:36:09.124Z,99.90
2023-04-26T23:38:37.159Z,99.90
2023-04-26T23:41:05.617Z,99.90
2023-04-26T23:43:33.668Z,99.90
2023-04-26T23:46:01.748Z,99.90
2023-04-26T23:48:31.217Z,99.90
2023-04-26T23:51:00.166Z,99.90
2023-04-26T23:53:28.241Z,99.90
2023-04-26T23:55:56.284Z,99.90
2023-04-26T23:58:24.339Z,99.90
